Time,TemperatureF,DewpointF,PressureIn,WindDirection,WindDirectionDegrees,WindSpeedMPH,WindSpeedGustMPH,Humidity,HourlyPrecipIn,Conditions,Clouds,dailyrainin,SoftwareType,DateUTC
2013-03-31 00:02:00,26.0,21.0,-100.00,SSE,149,2.0,5.0,81,0.00,,,0.00,,2013-03-31 06:02:00,
2013-03-31 00:12:00,26.0,21.0,-100.00,SSE,149,2.0,5.0,81,0.00,,,0.00,,2013-03-31 06:12:00,
2013-03-31 00:22:00,26.0,21.0,-100.00,SSE,149,2.0,5.0,81,0.00,,,0.00,,2013-03-31 06:22:00,
2013-03-31 00:52:00,25.0,20.0,-100.00,SSW,210,3.0,4.0,82,0.00,,,0.00,,2013-03-31 06:52:00,
2013-03-31 01:02:00,25.0,20.0,-100.00,SSW,210,3.0,4.0,82,0.00,,,0.00,,2013-03-31 07:02:00,
2013-03-31 01:12:00,25.0,20.0,-100.00,SSW,210,3.0,4.0,82,0.00,,,0.00,,2013-03-31 07:12:00,
2013-03-31 01:22:00,25.0,20.0,-100.00,SSW,210,3.0,4.0,82,0.00,,,0.00,,2013-03-31 07:22:00,
2013-03-31 01:53:00,26.0,19.0,-100.00,SSW,210,4.0,6.0,76,0.00,,,0.00,,2013-03-31 07:53:00,
2013-03-31 02:02:00,26.0,19.0,-100.00,SSW,210,4.0,6.0,76,0.00,,,0.00,,2013-03-31 08:02:00,
2013-03-31 02:12:00,26.0,19.0,-100.00,SSW,210,4.0,6.0,76,0.00,,,0.00,,2013-03-31 08:12:00,
2013-03-31 02:22:00,26.0,19.0,-100.00,SSW,210,4.0,6.0,76,0.00,,,0.00,,2013-03-31 08:22:00,
2013-03-31 02:52:00,25.0,19.0,-100.00,SW,228,5.0,8.0,76,0.00,,,0.00,,2013-03-31 08:52:00,
2013-03-31 03:02:00,25.0,19.0,-100.00,SW,228,5.0,8.0,76,0.00,,,0.00,,2013-03-31 09:02:00,
2013-03-31 03:12:00,25.0,19.0,-100.00,SW,228,5.0,8.0,76,0.00,,,0.00,,2013-03-31 09:12:00,
2013-03-31 03:22:00,25.0,19.0,-100.00,SW,228,5.0,8.0,76,0.00,,,0.00,,2013-03-31 09:22:00,
2013-03-31 03:53:00,26.0,17.0,-100.00,SSW,200,6.0,9.0,68,0.00,,,0.00,,2013-03-31 09:53:00,
2013-03-31 04:03:00,26.0,17.0,-100.00,SSW,200,6.0,9.0,68,0.00,,,0.00,,2013-03-31 10:03:00,
2013-03-31 04:13:00,26.0,17.0,-100.00,SSW,200,6.0,9.0,68,0.00,,,0.00,,2013-03-31 10:13:00,
2013-03-31 04:23:00,26.0,17.0,-100.00,SSW,200,6.0,9.0,68,0.00,,,0.00,,2013-03-31 10:23:00,
2013-03-31 04:53:00,26.0,16.0,-100.00,SSW,198,6.0,12.0,65,0.00,,,0.00,,2013-03-31 10:53:00,
2013-03-31 05:02:00,26.0,16.0,-100.00,SSW,198,6.0,12.0,65,0.00,,,0.00,,2013-03-31 11:02:00,
2013-03-31 05:12:00,26.0,16.0,-100.00,SSW,198,6.0,12.0,65,0.00,,,0.00,,2013-03-31 11:12:00,
2013-03-31 05:23:00,26.0,16.0,-100.00,SSW,198,6.0,12.0,65,0.00,,,0.00,,2013-03-31 11:23:00,
2013-03-31 05:53:00,26.0,14.0,-100.00,SSW,213,7.0,10.0,60,0.00,,,0.00,,2013-03-31 11:53:00,
2013-03-31 06:03:00,26.0,14.0,-100.00,SSW,213,7.0,10.0,60,0.00,,,0.00,,2013-03-31 12:03:00,
2013-03-31 06:12:00,26.0,14.0,-100.00,SSW,213,7.0,10.0,60,0.00,,,0.00,,2013-03-31 12:12:00,
2013-03-31 06:22:00,26.0,14.0,-100.00,SSW,213,7.0,10.0,60,0.00,,,0.00,,2013-03-31 12:22:00,
2013-03-31 06:53:00,26.0,13.0,-100.00,SSW,210,8.0,11.0,58,0.00,,,0.00,,2013-03-31 12:53:00,
2013-03-31 07:02:00,26.0,13.0,-100.00,SSW,210,8.0,11.0,58,0.00,,,0.00,,2013-03-31 13:02:00,
2013-03-31 07:12:00,26.0,13.0,-100.00,SSW,210,8.0,11.0,58,0.00,,,0.00,,2013-03-31 13:12:00,
2013-03-31 07:22:00,26.0,13.0,-100.00,SSW,210,8.0,11.0,58,0.00,,,0.00,,2013-03-31 13:22:00,
2013-03-31 07:53:00,28.0,11.0,-100.00,SSW,198,6.0,9.0,49,0.00,,,0.00,,2013-03-31 13:53:00,
2013-03-31 08:02:00,28.0,11.0,-100.00,SSW,198,6.0,9.0,49,0.00,,,0.00,,2013-03-31 14:02:00,
2013-03-31 08:12:00,28.0,11.0,-100.00,SSW,198,6.0,9.0,49,0.00,,,0.00,,2013-03-31 14:12:00,
2013-03-31 08:22:00,28.0,11.0,-100.00,SSW,198,6.0,9.0,49,0.00,,,0.00,,2013-03-31 14:22:00,
2013-03-31 08:52:00,33.0,10.0,-100.00,SSW,212,6.0,9.0,38,0.00,,,0.00,,2013-03-31 14:52:00,
2013-03-31 09:03:00,33.0,10.0,-100.00,SSW,212,6.0,9.0,38,0.00,,,0.00,,2013-03-31 15:03:00,
2013-03-31 09:13:00,33.0,10.0,-100.00,SSW,212,6.0,9.0,38,0.00,,,0.00,,2013-03-31 15:13:00,
2013-03-31 09:22:00,33.0,10.0,-100.00,SSW,212,6.0,9.0,38,0.00,,,0.00,,2013-03-31 15:22:00,
2013-03-31 09:54:00,37.0,13.0,-100.00,SW,236,4.0,7.0,37,0.01,,,0.01,,2013-03-31 15:54:00,
2013-03-31 10:03:00,37.0,13.0,-100.00,SW,236,4.0,7.0,37,0.01,,,0.01,,2013-03-31 16:03:00,
2013-03-31 10:13:00,37.0,13.0,-100.00,SW,236,4.0,7.0,37,0.01,,,0.01,,2013-03-31 16:13:00,
2013-03-31 10:23:00,37.0,13.0,-100.00,SW,236,4.0,7.0,37,0.01,,,0.01,,2013-03-31 16:23:00,
2013-03-31 10:53:00,38.0,11.0,-100.00,WSW,240,7.0,12.0,33,0.00,,,0.01,,2013-03-31 16:53:00,
2013-03-31 11:03:00,38.0,11.0,-100.00,WSW,240,7.0,12.0,33,0.00,,,0.01,,2013-03-31 17:03:00,
2013-03-31 11:12:00,38.0,11.0,-100.00,WSW,240,7.0,12.0,33,0.00,,,0.01,,2013-03-31 17:12:00,
2013-03-31 11:22:00,38.0,11.0,-100.00,WSW,240,7.0,12.0,33,0.00,,,0.01,,2013-03-31 17:22:00,
2013-03-31 11:52:00,40.0,11.0,-100.00,West,275,8.0,13.0,30,0.00,,,0.01,,2013-03-31 17:52:00,
2013-03-31 12:03:00,40.0,11.0,-100.00,West,275,8.0,13.0,30,0.00,,,0.01,,2013-03-31 18:03:00,
2013-03-31 12:13:00,40.0,11.0,-100.00,West,275,8.0,13.0,30,0.00,,,0.01,,2013-03-31 18:13:00,
2013-03-31 12:22:00,40.0,11.0,-100.00,West,275,8.0,13.0,30,0.00,,,0.01,,2013-03-31 18:22:00,
2013-03-31 12:53:00,44.0,15.0,-100.00,WNW,284,6.0,14.0,31,0.00,,,0.01,,2013-03-31 18:53:00,
2013-03-31 13:03:00,44.0,15.0,-100.00,WNW,284,6.0,14.0,31,0.00,,,0.01,,2013-03-31 19:03:00,
2013-03-31 13:12:00,44.0,15.0,-100.00,WNW,284,6.0,14.0,31,0.00,,,0.01,,2013-03-31 19:12:00,
2013-03-31 13:22:00,44.0,15.0,-100.00,WNW,284,6.0,14.0,31,0.00,,,0.01,,2013-03-31 19:22:00,
2013-03-31 13:54:00,44.0,13.0,-100.00,West,278,7.0,14.0,28,0.00,,,0.01,,2013-03-31 19:54:00,
2013-03-31 14:03:00,44.0,13.0,-100.00,West,278,7.0,14.0,28,0.00,,,0.01,,2013-03-31 20:03:00,
2013-03-31 14:12:00,44.0,13.0,-100.00,West,278,7.0,14.0,28,0.00,,,0.01,,2013-03-31 20:12:00,
2013-03-31 14:22:00,44.0,13.0,-100.00,West,278,7.0,14.0,28,0.00,,,0.01,,2013-03-31 20:22:00,
2013-03-31 14:53:00,44.0,12.0,-100.00,NW,311,10.0,19.0,27,0.00,,,0.01,,2013-03-31 20:53:00,
2013-03-31 15:02:00,44.0,12.0,-100.00,NW,311,10.0,19.0,27,0.00,,,0.01,,2013-03-31 21:02:00,
2013-03-31 15:12:00,44.0,12.0,-100.00,NW,311,10.0,19.0,27,0.00,,,0.01,,2013-03-31 21:12:00,
2013-03-31 15:22:00,44.0,12.0,-100.00,NW,311,10.0,19.0,27,0.00,,,0.01,,2013-03-31 21:22:00,
2013-03-31 15:54:00,44.0,12.0,-100.00,West,278,10.0,18.0,27,0.00,,,0.01,,2013-03-31 21:54:00,
2013-03-31 16:03:00,44.0,12.0,-100.00,West,278,10.0,18.0,27,0.00,,,0.01,,2013-03-31 22:03:00,
2013-03-31 16:13:00,44.0,12.0,-100.00,West,278,10.0,18.0,27,0.00,,,0.01,,2013-03-31 22:13:00,
2013-03-31 16:23:00,44.0,12.0,-100.00,West,278,10.0,18.0,27,0.00,,,0.01,,2013-03-31 22:23:00,
2013-03-31 16:53:00,45.0,15.0,-100.00,WNW,300,8.0,17.0,30,0.00,,,0.01,,2013-03-31 22:53:00,
2013-03-31 17:03:00,45.0,15.0,-100.00,WNW,300,8.0,17.0,30,0.00,,,0.01,,2013-03-31 23:03:00,
2013-03-31 17:13:00,45.0,15.0,-100.00,WNW,300,8.0,17.0,30,0.00,,,0.01,,2013-03-31 23:13:00,
2013-03-31 17:22:00,45.0,15.0,-100.00,WNW,300,8.0,17.0,30,0.00,,,0.01,,2013-03-31 23:22:00,
2013-03-31 17:53:00,44.0,15.0,-100.00,NW,314,8.0,16.0,31,0.00,,,0.01,,2013-03-31 23:53:00,
2013-03-31 18:02:00,44.0,15.0,-100.00,NW,314,8.0,16.0,31,0.00,,,0.01,,2013-04-01 00:02:00,
2013-03-31 18:12:00,44.0,15.0,-100.00,NW,314,8.0,16.0,31,0.00,,,0.01,,2013-04-01 00:12:00,
2013-03-31 18:22:00,44.0,15.0,-100.00,NW,314,8.0,16.0,31,0.00,,,0.01,,2013-04-01 00:22:00,
2013-03-31 18:53:00,43.0,17.0,-100.00,West,260,8.0,15.0,34,0.00,,,0.01,,2013-04-01 00:53:00,
2013-03-31 19:03:00,43.0,17.0,-100.00,West,260,8.0,15.0,34,0.00,,,0.01,,2013-04-01 01:03:00,
2013-03-31 19:12:00,43.0,17.0,-100.00,West,260,8.0,15.0,34,0.00,,,0.01,,2013-04-01 01:12:00,
2013-03-31 19:22:00,43.0,17.0,-100.00,West,260,8.0,15.0,34,0.00,,,0.01,,2013-04-01 01:22:00,
2013-03-31 19:53:00,39.0,18.0,-100.00,West,260,4.0,12.0,42,0.00,,,0.01,,2013-04-01 01:53:00,
2013-03-31 20:03:00,39.0,18.0,-100.00,West,260,4.0,12.0,42,0.00,,,0.01,,2013-04-01 02:03:00,
2013-03-31 20:12:00,39.0,18.0,-100.00,West,260,4.0,12.0,42,0.00,,,0.01,,2013-04-01 02:12:00,
2013-03-31 20:22:00,39.0,18.0,-100.00,West,260,4.0,12.0,42,0.00,,,0.01,,2013-04-01 02:22:00,
2013-03-31 20:53:00,35.0,16.0,-100.00,WSW,246,3.0,4.0,45,0.00,,,0.01,,2013-04-01 02:53:00,
2013-03-31 21:03:00,35.0,16.0,-100.00,WSW,246,3.0,4.0,45,0.00,,,0.01,,2013-04-01 03:03:00,
2013-03-31 21:12:00,35.0,16.0,-100.00,WSW,246,3.0,4.0,45,0.00,,,0.01,,2013-04-01 03:12:00,
2013-03-31 21:22:00,35.0,16.0,-100.00,WSW,246,3.0,4.0,45,0.00,,,0.01,,2013-04-01 03:22:00,
2013-03-31 21:53:00,35.0,14.0,-100.00,SSW,197,2.0,4.0,42,0.00,,,0.01,,2013-04-01 03:53:00,
2013-03-31 22:03:00,35.0,14.0,-100.00,SSW,197,2.0,4.0,42,0.00,,,0.01,,2013-04-01 04:03:00,
2013-03-31 22:14:00,35.0,14.0,-100.00,SSW,197,2.0,4.0,42,0.00,,,0.01,,2013-04-01 04:14:00,
2013-03-31 22:23:00,35.0,14.0,-100.00,SSW,197,2.0,4.0,42,0.00,,,0.01,,2013-04-01 04:23:00,
2013-03-31 22:53:00,35.0,13.0,-100.00,ESE,111,2.0,4.0,40,0.00,,,0.01,,2013-04-01 04:53:00,
2013-03-31 23:02:00,35.0,13.0,-100.00,ESE,111,2.0,4.0,40,0.00,,,0.01,,2013-04-01 05:02:00,
2013-03-31 23:12:00,35.0,13.0,-100.00,ESE,111,2.0,4.0,40,0.00,,,0.01,,2013-04-01 05:12:00,
2013-03-31 23:22:00,35.0,13.0,-100.00,ESE,111,2.0,4.0,40,0.00,,,0.01,,2013-04-01 05:22:00,
2013-03-31 23:53:00,35.0,12.0,-100.00,South,190,4.0,5.0,38,0.00,,,0.01,,2013-04-01 05:53:00,